Time;durP1;ratioP1;P1;durP2;ratioP2;P2;SDS_P1;SDS_P2;PMS_P1;PMS_P2;Temp;Humidity;BMP_temperature;BMP_pressure;BME280_temperature;BME280_humidity;BME280_pressure;Samples;Min_cycle;Max_cycle;Signal;HPM_P1;HPM_P2
2023/04/25 00:01:28;;;;;;;27.80;13.30;;;;;;;10.19;100.00;100600.31;107503;1279;59128;-77
2023/04/25 00:03:54;;;;;;;28.30;14.00;;;;;;;10.15;100.00;100599.54;107530;1278;59091;-78
2023/04/25 00:06:19;;;;;;;31.80;14.30;;;;;;;10.13;100.00;100602.52;107529;1279;59031;-78
2023/04/25 00:08:45;;;;;;;33.30;13.90;;;;;;;10.06;100.00;100601.23;107509;1280;59004;-78
2023/04/25 00:11:11;;;;;;;32.20;14.80;;;;;;;10.16;100.00;100598.40;107485;1278;59055;-78
2023/04/25 00:13:36;;;;;;;26.90;13.30;;;;;;;10.18;100.00;100598.10;107074;1278;59194;-78
2023/04/25 00:16:02;;;;;;;26.70;12.40;;;;;;;10.18;100.00;100598.86;107525;1279;58999;-78
2023/04/25 00:18:29;;;;;;;21.00;11.90;;;;;;;10.18;100.00;100594.60;107433;1279;59101;-78
2023/04/25 00:20:55;;;;;;;26.30;12.70;;;;;;;10.12;100.00;100594.77;107053;1279;59082;-78
2023/04/25 00:23:21;;;;;;;21.40;10.50;;;;;;;10.05;100.00;100598.42;107333;1279;59096;-78
2023/04/25 00:25:49;;;;;;;19.40;9.50;;;;;;;10.03;100.00;100596.80;107429;1279;59075;-78
2023/04/25 00:28:15;;;;;;;23.10;10.80;;;;;;;10.05;100.00;100594.13;107327;1279;73223;-78
2023/04/25 00:30:41;;;;;;;23.60;11.70;;;;;;;10.07;100.00;100594.77;107311;1279;59394;-78
2023/04/25 00:33:07;;;;;;;22.70;11.20;;;;;;;10.03;100.00;100586.52;107471;1279;59208;-78
2023/04/25 00:35:33;;;;;;;26.10;12.90;;;;;;;10.04;100.00;100582.90;107477;1278;59013;-78
2023/04/25 00:37:58;;;;;;;25.90;12.30;;;;;;;10.13;100.00;100583.36;107342;1278;59017;-78
2023/04/25 00:40:24;;;;;;;23.30;13.40;;;;;;;10.10;100.00;100575.36;107484;1278;59152;-77
2023/04/25 00:42:51;;;;;;;27.10;12.10;;;;;;;9.99;100.00;100572.58;107494;1278;59096;-78
2023/04/25 00:45:17;;;;;;;27.20;11.60;;;;;;;9.89;100.00;100575.02;107471;1279;59588;-78
2023/04/25 00:47:43;;;;;;;24.00;11.60;;;;;;;9.95;100.00;100569.00;107441;1279;59035;-78
2023/04/25 00:50:09;;;;;;;24.40;11.40;;;;;;;9.99;100.00;100564.77;107490;1279;59105;-78
2023/04/25 00:52:37;;;;;;;20.80;11.10;;;;;;;9.96;100.00;100562.70;107065;1278;59437;-78
2023/04/25 00:55:03;;;;;;;22.70;10.80;;;;;;;9.87;100.00;100568.39;107452;1279;59004;-78
2023/04/25 00:57:29;;;;;;;23.20;11.10;;;;;;;9.83;100.00;100567.38;107473;1279;59113;-78
2023/04/25 00:59:55;;;;;;;18.00;10.00;;;;;;;9.83;100.00;100559.83;107473;1279;59103;-78
2023/04/25 01:02:21;;;;;;;21.90;10.70;;;;;;;9.78;100.00;100559.65;107494;1279;59172;-78
2023/04/25 01:04:48;;;;;;;27.20;13.90;;;;;;;9.67;100.00;100561.79;107467;1279;59481;-78
2023/04/25 01:07:15;;;;;;;27.60;13.00;;;;;;;9.85;100.00;100561.05;107479;1278;59037;-78
2023/04/25 01:09:40;;;;;;;30.10;13.90;;;;;;;9.74;100.00;100557.12;107055;1279;59197;-78
2023/04/25 01:12:06;;;;;;;32.70;15.60;;;;;;;9.85;100.00;100552.54;107098;1279;59142;-78
2023/04/25 01:14:32;;;;;;;30.90;13.90;;;;;;;9.97;100.00;100547.86;107468;1279;59543;-78
2023/04/25 01:16:58;;;;;;;23.80;12.30;;;;;;;9.91;100.00;100544.90;107487;1279;59122;-78
2023/04/25 01:19:24;;;;;;;27.20;12.70;;;;;;;9.89;100.00;100547.41;107467;1279;60121;-78
2023/04/25 01:21:50;;;;;;;25.20;13.30;;;;;;;9.85;100.00;100545.70;107446;1279;59065;-78
2023/04/25 01:24:16;;;;;;;28.90;12.50;;;;;;;9.88;100.00;100543.79;107365;1278;59205;-78
2023/04/25 01:26:49;;;;;;;21.50;12.60;;;;;;;9.99;100.00;100543.29;107037;1279;59088;-79
2023/04/25 01:29:15;;;;;;;;;;;;;;;9.96;100.00;100538.80;107459;1279;61806;-78
2023/04/25 01:31:41;;;;;;;22.90;11.60;;;;;;;9.99;100.00;100538.71;107479;1278;59048;-78
2023/04/25 01:34:07;;;;;;;22.50;12.50;;;;;;;10.02;100.00;100536.70;107504;1279;59294;-79
2023/04/25 01:36:33;;;;;;;23.00;10.90;;;;;;;10.00;100.00;100534.35;107331;1279;59063;-78
2023/04/25 01:39:00;;;;;;;27.00;12.20;;;;;;;9.97;100.00;100531.42;107484;1279;59398;-78
2023/04/25 01:41:26;;;;;;;24.90;11.60;;;;;;;9.87;100.00;100533.93;107482;1279;59134;-78
2023/04/25 01:43:52;;;;;;;29.00;11.70;;;;;;;9.90;100.00;100528.36;107463;1278;59843;-78
2023/04/25 01:46:17;;;;;;;24.10;12.10;;;;;;;9.91;100.00;100529.22;107110;1279;59268;-78
2023/04/25 01:48:43;;;;;;;26.50;12.80;;;;;;;9.98;100.00;100529.11;107499;1279;59020;-79
2023/04/25 01:51:09;;;;;;;30.30;14.90;;;;;;;10.10;100.00;100531.46;107462;1279;60988;-78
2023/04/25 01:53:35;;;;;;;27.60;15.30;;;;;;;10.10;100.00;100532.61;107456;1279;58993;-78
2023/04/25 01:56:00;;;;;;;25.30;14.50;;;;;;;10.11;100.00;100534.11;107484;1279;59193;-79
2023/04/25 01:58:26;;;;;;;27.70;13.80;;;;;;;10.16;100.00;100533.45;107484;1278;59069;-78
2023/04/25 02:00:51;;;;;;;26.70;13.50;;;;;;;10.19;100.00;100528.63;107477;1279;59877;-78
2023/04/25 02:03:17;;;;;;;24.90;13.20;;;;;;;10.15;100.00;100528.28;107477;1278;60091;-78
2023/04/25 02:05:42;;;;;;;27.80;12.60;;;;;;;10.17;100.00;100528.52;107073;1279;59190;-79
2023/04/25 02:08:09;;;;;;;26.40;12.90;;;;;;;10.24;100.00;100528.29;107516;1279;59452;-79
2023/04/25 02:10:35;;;;;;;23.20;13.10;;;;;;;10.28;100.00;100528.93;107102;1279;59143;-78
2023/04/25 02:13:01;;;;;;;22.90;12.70;;;;;;;10.28;100.00;100524.09;107486;1279;59024;-79
2023/04/25 02:15:26;;;;;;;21.50;12.20;;;;;;;10.31;100.00;100521.61;107492;1280;59055;-79
2023/04/25 02:17:52;;;;;;;24.00;13.10;;;;;;;10.29;100.00;100522.63;107524;1278;59134;-79
2023/04/25 02:20:20;;;;;;;23.60;12.10;;;;;;;10.36;100.00;100516.86;107474;1279;72585;-79
2023/04/25 02:22:45;;;;;;;26.90;12.90;;;;;;;10.35;100.00;100518.91;107421;1282;60822;-79
2023/04/25 02:25:11;;;;;;;23.80;12.50;;;;;;;10.39;100.00;100517.31;107497;1278;59231;-79
2023/04/25 02:27:37;;;;;;;23.50;11.70;;;;;;;10.44;100.00;100512.77;107498;1279;59035;-79
2023/04/25 02:30:04;;;;;;;23.50;11.90;;;;;;;10.45;100.00;100512.66;107490;1279;59067;-79
2023/04/25 02:32:30;;;;;;;23.00;12.50;;;;;;;10.44;100.00;100507.92;107462;1280;59141;-80
2023/04/25 02:34:58;;;;;;;23.40;11.00;;;;;;;10.44;100.00;100507.48;107470;1279;58974;-79
2023/04/25 02:37:24;;;;;;;22.70;12.40;;;;;;;10.49;100.00;100506.86;107506;1279;59053;-79
2023/04/25 02:39:49;;;;;;;27.30;14.60;;;;;;;10.51;100.00;100509.03;107496;1280;58995;-79
2023/04/25 02:42:15;;;;;;;26.80;13.00;;;;;;;10.56;100.00;100506.70;107479;1279;59058;-79
2023/04/25 02:44:41;;;;;;;22.90;12.50;;;;;;;10.60;100.00;100507.45;107082;1279;59191;-79
2023/04/25 02:47:06;;;;;;;24.90;13.10;;;;;;;10.63;100.00;100508.94;107069;1278;59179;-79
2023/04/25 02:49:32;;;;;;;24.50;13.00;;;;;;;10.69;100.00;100510.69;107491;1279;59070;-79
2023/04/25 02:51:57;;;;;;;28.70;14.00;;;;;;;10.74;100.00;100513.30;107164;1278;59438;-78
2023/04/25 02:54:23;;;;;;;26.50;14.70;;;;;;;10.76;100.00;100515.52;107496;1280;59095;-79
2023/04/25 02:56:48;;;;;;;25.10;13.70;;;;;;;10.78;100.00;100514.77;107473;1279;59296;-80
2023/04/25 02:59:14;;;;;;;25.00;12.80;;;;;;;10.80;100.00;100511.54;107520;1280;59602;-80
2023/04/25 03:01:39;;;;;;;27.10;12.80;;;;;;;10.85;100.00;100513.13;107463;1280;59033;-80
2023/04/25 03:04:05;;;;;;;26.30;12.70;;;;;;;10.86;100.00;100511.08;107464;1278;59154;-80
2023/04/25 03:06:30;;;;;;;28.40;13.00;;;;;;;10.96;100.00;100516.30;107472;1279;59984;-79
2023/04/25 03:08:56;;;;;;;26.20;12.40;;;;;;;11.02;100.00;100514.54;107477;1278;59093;-79
2023/04/25 03:11:21;;;;;;;29.70;12.80;;;;;;;11.09;100.00;100515.91;107528;1279;59195;-80
2023/04/25 03:13:47;;;;;;;25.50;13.00;;;;;;;11.14;100.00;100517.77;107467;1279;59130;-80
2023/04/25 03:16:12;;;;;;;26.10;13.70;;;;;;;11.28;100.00;100518.08;107462;1278;59396;-80
2023/04/25 03:18:38;;;;;;;29.00;12.80;;;;;;;11.41;100.00;100522.73;106986;1279;59076;-80
2023/04/25 03:21:03;;;;;;;24.00;12.40;;;;;;;11.55;100.00;100523.63;107494;1280;59083;-80
2023/04/25 03:23:29;;;;;;;22.30;11.80;;;;;;;11.65;100.00;100527.03;107494;1280;59426;-80
2023/04/25 03:25:54;;;;;;;25.00;11.90;;;;;;;11.70;100.00;100528.23;107512;1278;59414;-80
2023/04/25 03:28:20;;;;;;;25.50;12.90;;;;;;;11.52;100.00;100526.36;107488;1279;59146;-80
2023/04/25 03:30:45;;;;;;;26.20;12.20;;;;;;;11.67;100.00;100530.83;107491;1278;59192;-80
2023/04/25 03:33:11;;;;;;;28.90;11.70;;;;;;;11.93;100.00;100524.05;107488;1280;59078;-80
2023/04/25 03:35:36;;;;;;;25.40;11.70;;;;;;;12.03;100.00;100522.38;107495;1279;59556;-79
2023/04/25 03:38:02;;;;;;;24.10;11.60;;;;;;;12.17;100.00;100524.31;107529;1279;59028;-80
2023/04/25 03:40:27;;;;;;;26.70;11.50;;;;;;;12.32;100.00;100518.84;107058;1280;59134;-80
2023/04/25 03:42:53;;;;;;;22.90;10.50;;;;;;;12.55;100.00;100516.02;107478;1279;59011;-80
2023/04/25 03:45:18;;;;;;;21.20;10.60;;;;;;;12.60;100.00;100518.38;107480;1279;59466;-80
2023/04/25 03:47:44;;;;;;;24.40;10.30;;;;;;;12.80;100.00;100516.98;107535;1280;59087;-80
2023/04/25 03:50:10;;;;;;;22.20;10.50;;;;;;;12.96;100.00;100514.36;107493;1280;59130;-80
2023/04/25 03:52:35;;;;;;;18.80;9.60;;;;;;;13.16;100.00;100515.63;107467;1278;59018;-80
2023/04/25 03:55:01;;;;;;;16.30;8.70;;;;;;;13.42;100.00;100514.03;107468;1280;59120;-80
2023/04/25 03:57:26;;;;;;;19.80;8.70;;;;;;;13.36;100.00;100514.88;107053;1280;59022;-80
2023/04/25 03:59:52;;;;;;;15.00;8.40;;;;;;;13.40;100.00;100513.77;107525;1279;59167;-81
2023/04/25 04:02:18;;;;;;;18.30;8.30;;;;;;;13.49;100.00;100511.34;107463;1279;59324;-81
2023/04/25 04:04:43;;;;;;;14.60;8.50;;;;;;;13.75;100.00;100514.50;107440;1279;59311;-81
2023/04/25 04:07:10;;;;;;;19.30;8.30;;;;;;;13.91;100.00;100511.88;107448;1280;59196;-81
2023/04/25 04:09:35;;;;;;;17.70;8.80;;;;;;;14.06;100.00;100508.27;107086;1280;59227;-81
2023/04/25 04:12:01;;;;;;;16.40;7.70;;;;;;;14.20;100.00;100505.98;107457;1280;59135;-80
2023/04/25 04:14:27;;;;;;;21.30;8.60;;;;;;;14.25;100.00;100503.39;107217;1280;59287;-81
2023/04/25 04:16:52;;;;;;;17.70;8.00;;;;;;;14.29;100.00;100503.01;107480;1279;59115;-80
2023/04/25 04:19:18;;;;;;;20.60;8.20;;;;;;;14.33;100.00;100499.02;107496;1279;59095;-81
2023/04/25 04:21:43;;;;;;;17.80;8.10;;;;;;;14.38;100.00;100499.73;107086;1286;59175;-81
2023/04/25 04:24:10;;;;;;;16.90;7.70;;;;;;;14.50;100.00;100498.69;107470;1279;59399;-81
2023/04/25 04:26:36;;;;;;;14.40;7.00;;;;;;;14.69;100.00;100493.45;107442;1279;59122;-80
2023/04/25 04:29:02;;;;;;;13.60;6.40;;;;;;;14.88;100.00;100493.11;107435;1278;59293;-81
2023/04/25 04:31:29;;;;;;;14.80;6.80;;;;;;;15.03;100.00;100493.83;107503;1282;59079;-81
2023/04/25 04:33:55;;;;;;;12.20;6.60;;;;;;;15.14;100.00;100489.11;107493;1278;59002;-81
2023/04/25 04:36:22;;;;;;;15.60;6.50;;;;;;;15.25;100.00;100488.38;107458;1279;59097;-81
2023/04/25 04:38:48;;;;;;;9.90;6.20;;;;;;;15.40;100.00;100489.08;107193;1280;59060;-81
2023/04/25 04:41:14;;;;;;;12.70;5.80;;;;;;;15.47;100.00;100485.22;107452;1282;58987;-81
2023/04/25 04:43:40;;;;;;;13.30;5.50;;;;;;;15.68;100.00;100485.66;107024;1280;59460;-81
2023/04/25 04:46:05;;;;;;;17.30;5.20;;;;;;;15.88;100.00;100486.12;107098;1280;59100;-81
2023/04/25 04:48:35;;;;;;;7.60;4.10;;;;;;;16.09;100.00;100481.88;107450;1280;59097;-81
2023/04/25 04:51:01;;;;;;;13.60;4.50;;;;;;;16.16;100.00;100481.49;107441;1279;61543;-81
2023/04/25 04:53:27;;;;;;;9.00;4.60;;;;;;;16.13;100.00;100483.60;107345;1279;59180;-81
2023/04/25 04:55:52;;;;;;;8.30;4.40;;;;;;;16.18;100.00;100476.63;107049;1279;59068;-82
2023/04/25 04:58:18;;;;;;;9.40;4.60;;;;;;;16.37;100.00;100476.95;107510;1279;59055;-82
2023/04/25 05:00:44;;;;;;;8.20;3.70;;;;;;;16.63;100.00;100469.77;107433;1282;58999;-82
2023/04/25 05:03:11;;;;;;;12.10;4.00;;;;;;;16.79;100.00;100470.87;107076;1279;58983;-81
2023/04/25 05:05:39;;;;;;;11.40;4.40;;;;;;;16.89;100.00;100470.63;107486;1278;59099;-81
2023/04/25 05:08:05;;;;;;;11.20;3.50;;;;;;;17.08;100.00;100468.15;107464;1280;58992;-81
2023/04/25 05:10:31;;;;;;;8.20;3.90;;;;;;;17.40;100.00;100463.80;107310;1280;59057;-81
2023/04/25 05:12:56;;;;;;;8.80;4.00;;;;;;;17.63;100.00;100462.14;107464;1280;59028;-82
2023/04/25 05:15:22;;;;;;;11.20;4.40;;;;;;;17.83;100.00;100461.36;107489;1279;59085;-82
2023/04/25 05:17:47;;;;;;;10.00;3.50;;;;;;;18.02;100.00;100456.41;107478;1278;75495;-81
2023/04/25 05:20:13;;;;;;;7.30;3.30;;;;;;;18.05;100.00;100455.95;107440;1280;59217;-81
2023/04/25 05:22:41;;;;;;;9.20;4.00;;;;;;;18.18;100.00;100452.46;107033;1280;59183;-81
2023/04/25 05:25:07;;;;;;;8.80;3.50;;;;;;;18.46;100.00;100451.94;107459;1279;59051;-82
2023/04/25 05:27:33;;;;;;;9.50;4.40;;;;;;;18.55;100.00;100451.95;107508;1278;59033;-80
2023/04/25 05:30:01;;;;;;;9.20;4.10;;;;;;;18.44;100.00;100454.67;107514;1280;59001;-80
2023/04/25 05:32:27;;;;;;;10.40;3.90;;;;;;;18.53;100.00;100455.34;106885;1279;73401;-81
2023/04/25 05:34:53;;;;;;;9.90;4.00;;;;;;;18.49;100.00;100454.89;107492;1279;59208;-80
2023/04/25 05:37:18;;;;;;;9.60;4.40;;;;;;;18.39;100.00;100455.80;107493;1280;59011;-79
2023/04/25 05:39:44;;;;;;;10.00;4.30;;;;;;;18.02;100.00;100454.32;107506;1279;59098;-78
2023/04/25 05:42:10;;;;;;;8.90;4.30;;;;;;;17.92;100.00;100454.03;107546;1279;59029;-79
2023/04/25 05:44:35;;;;;;;8.40;3.60;;;;;;;17.82;100.00;100454.41;107445;1278;71178;-79
2023/04/25 05:47:01;;;;;;;13.30;3.80;;;;;;;17.89;100.00;100452.36;107451;1279;59044;-80
2023/04/25 05:49:26;;;;;;;10.30;3.90;;;;;;;17.92;100.00;100451.58;107450;1279;58977;-81
2023/04/25 05:51:52;;;;;;;8.60;3.90;;;;;;;17.90;100.00;100453.23;107491;1280;59064;-80
2023/04/25 05:54:17;;;;;;;11.10;3.90;;;;;;;17.73;100.00;100449.65;107506;1280;59128;-80
2023/04/25 05:56:43;;;;;;;8.10;4.10;;;;;;;17.45;100.00;100448.71;107069;1280;62119;-80
2023/04/25 05:59:09;;;;;;;11.90;4.00;;;;;;;17.45;100.00;100446.85;107497;1280;59325;-80
2023/04/25 06:01:34;;;;;;;11.00;4.20;;;;;;;17.42;100.00;100445.33;107525;1280;58988;-78
2023/04/25 06:04:01;;;;;;;9.70;4.00;;;;;;;17.46;100.00;100448.95;107487;1280;59499;-79
2023/04/25 06:06:27;;;;;;;16.00;4.60;;;;;;;17.47;100.00;100448.47;107488;1279;59139;-80
2023/04/25 06:08:53;;;;;;;12.00;4.50;;;;;;;17.36;100.00;100446.67;107438;1279;59060;-80
2023/04/25 06:11:18;;;;;;;9.30;4.30;;;;;;;17.27;100.00;100450.27;107529;1280;59091;-79
2023/04/25 06:13:45;;;;;;;13.00;4.40;;;;;;;17.41;100.00;100448.84;107469;1280;73398;-80
2023/04/25 06:16:11;;;;;;;14.50;5.20;;;;;;;17.52;100.00;100447.19;106990;1280;71343;-79
2023/04/25 06:18:37;;;;;;;14.10;5.40;;;;;;;17.47;100.00;100445.93;107476;1280;59106;-79
2023/04/25 06:21:02;;;;;;;18.00;5.20;;;;;;;17.51;100.00;100447.08;107079;1280;59181;-79
2023/04/25 06:23:28;;;;;;;15.70;5.10;;;;;;;17.72;100.00;100448.16;107444;1280;59039;-79
2023/04/25 06:25:53;;;;;;;18.80;5.70;;;;;;;17.83;100.00;100446.58;107501;1279;59494;-80
2023/04/25 06:28:19;;;;;;;21.10;5.60;;;;;;;18.02;100.00;100441.84;107438;1280;62550;-79
2023/04/25 06:30:45;;;;;;;15.70;5.60;;;;;;;18.10;100.00;100447.14;107007;1283;59109;-80
2023/04/25 06:33:10;;;;;;;17.10;5.10;;;;;;;18.17;100.00;100448.42;107018;1283;59171;-79
2023/04/25 06:35:36;;;;;;;16.40;5.40;;;;;;;18.23;100.00;100446.91;107004;1282;59523;-79
2023/04/25 06:38:01;;;;;;;22.30;7.10;;;;;;;18.13;100.00;100447.86;107059;1283;59064;-79
2023/04/25 06:40:27;;;;;;;15.90;7.00;;;;;;;18.32;100.00;100451.07;106799;1283;60697;-81
2023/04/25 06:42:53;;;;;;;19.80;7.10;;;;;;;18.41;100.00;100450.11;106987;1282;59080;-78
2023/04/25 06:45:18;;;;;;;19.00;7.70;;;;;;;18.57;100.00;100449.38;106886;1283;59936;-79
2023/04/25 06:47:44;;;;;;;22.90;7.40;;;;;;;18.61;100.00;100449.76;107009;1283;59479;-80
2023/04/25 06:50:10;;;;;;;17.40;7.00;;;;;;;18.69;100.00;100446.92;106826;1286;59129;-79
2023/04/25 06:52:36;;;;;;;15.90;6.80;;;;;;;18.80;100.00;100446.56;106753;1285;75408;-79
2023/04/25 06:55:02;;;;;;;13.50;5.40;;;;;;;18.80;100.00;100448.52;106639;1285;59183;-79
2023/04/25 06:57:28;;;;;;;22.60;9.00;;;;;;;18.79;100.00;100448.11;106741;1285;59863;-79
2023/04/25 06:59:54;;;;;;;17.40;6.90;;;;;;;18.66;100.00;100451.04;106752;1285;59141;-80
2023/04/25 07:02:21;;;;;;;19.60;6.50;;;;;;;18.51;100.00;100452.43;106934;1283;59141;-81
2023/04/25 07:04:47;;;;;;;19.10;7.60;;;;;;;18.53;100.00;100451.58;107011;1282;59243;-81
2023/04/25 07:07:12;;;;;;;19.90;7.50;;;;;;;18.61;100.00;100454.07;106802;1282;59298;-81
2023/04/25 07:09:38;;;;;;;20.70;8.50;;;;;;;18.73;100.00;100454.28;106984;1283;59114;-81
2023/04/25 07:12:04;;;;;;;25.10;8.10;;;;;;;18.75;100.00;100457.25;107011;1283;61132;-81
2023/04/25 07:14:30;;;;;;;24.30;8.60;;;;;;;18.57;100.00;100459.81;107053;1282;59061;-82
2023/04/25 07:16:56;;;;;;;17.40;7.60;;;;;;;18.53;100.00;100458.89;107020;1282;59150;-81
2023/04/25 07:19:26;;;;;;;135.00;52.40;;;;;;;18.52;100.00;100462.08;107006;1282;59483;-81
2023/04/25 07:21:52;;;;;;;36.40;14.60;;;;;;;18.82;100.00;100462.66;107333;1279;61852;-81
2023/04/25 07:24:17;;;;;;;18.30;7.80;;;;;;;18.97;100.00;100461.95;107373;1278;59123;-82
2023/04/25 07:26:43;;;;;;;16.30;7.10;;;;;;;18.87;100.00;100463.05;107523;1280;59024;-82
2023/04/25 07:29:09;;;;;;;16.30;6.00;;;;;;;18.77;100.00;100459.10;107368;1279;59138;-81
2023/04/25 07:31:35;;;;;;;16.30;4.60;;;;;;;18.78;100.00;100459.57;107499;1279;58998;-80
2023/04/25 07:34:01;;;;;;;11.30;3.70;;;;;;;18.79;100.00;100459.89;107510;1279;59045;-80
2023/04/25 07:36:27;;;;;;;9.90;4.00;;;;;;;18.76;100.00;100459.17;107387;1280;59051;-81
2023/04/25 07:38:52;;;;;;;10.10;4.20;;;;;;;18.83;100.00;100460.05;107336;1280;75639;-80
2023/04/25 07:41:21;;;;;;;7.20;3.10;;;;;;;18.78;100.00;100457.86;107308;1279;59165;-81
2023/04/25 07:43:46;;;;;;;6.50;3.30;;;;;;;18.67;100.00;100459.96;106976;1283;62679;-81
2023/04/25 07:46:12;;;;;;;12.60;3.60;;;;;;;18.73;100.00;100456.58;107059;1282;59658;-81
2023/04/25 07:48:37;;;;;;;4.00;2.70;;;;;;;18.82;100.00;100460.25;107041;1282;59081;-82
2023/04/25 07:51:05;;;;;;;5.50;3.00;;;;;;;18.74;100.00;100455.02;107029;1282;59487;-81
2023/04/25 07:53:31;;;;;;;6.10;3.20;;;;;;;18.61;97.92;100464.55;106985;1284;59426;-80
2023/04/25 07:55:57;;;;;;;4.30;2.40;;;;;;;18.55;99.68;100461.92;106850;1282;59099;-81
2023/04/25 07:58:23;;;;;;;6.10;2.70;;;;;;;18.61;97.91;100461.88;107038;1283;59182;-81
2023/04/25 08:00:48;;;;;;;6.60;2.90;;;;;;;18.57;96.94;100462.24;107089;1282;59240;-81
2023/04/25 08:03:14;;;;;;;7.40;3.10;;;;;;;18.49;98.33;100460.81;107007;1282;73908;-81
2023/04/25 08:05:40;;;;;;;9.20;3.10;;;;;;;18.35;99.97;100466.54;107025;1283;59139;-81
2023/04/25 08:08:06;;;;;;;9.80;3.50;;;;;;;18.38;100.00;100463.44;107095;1282;59129;-81
2023/04/25 08:10:32;;;;;;;10.60;3.90;;;;;;;18.49;100.00;100463.47;107034;1282;59433;-82
2023/04/25 08:12:58;;;;;;;8.50;3.90;;;;;;;18.66;100.00;100459.23;107019;1282;59128;-81
2023/04/25 08:15:25;;;;;;;9.50;4.10;;;;;;;18.54;100.00;100464.80;107249;1282;58952;-81
2023/04/25 08:17:50;;;;;;;11.90;3.50;;;;;;;18.49;100.00;100461.44;107488;1279;58988;-81
2023/04/25 08:20:16;;;;;;;9.30;3.30;;;;;;;18.56;100.00;100462.02;107543;1279;59067;-81
2023/04/25 08:22:42;;;;;;;9.40;3.90;;;;;;;18.59;100.00;100459.65;107525;1279;73293;-82
2023/04/25 08:25:08;;;;;;;9.50;4.20;;;;;;;18.66;100.00;100457.80;106832;1280;59354;-81
2023/04/25 08:27:34;;;;;;;11.20;4.70;;;;;;;18.68;100.00;100454.57;107380;1278;59014;-82
2023/04/25 08:30:00;;;;;;;10.90;4.50;;;;;;;18.51;99.99;100451.13;107554;1278;59405;-82
2023/04/25 08:32:26;;;;;;;14.70;4.40;;;;;;;18.60;100.00;100448.73;107515;1279;58976;-81
2023/04/25 08:34:53;;;;;;;17.70;4.60;;;;;;;18.69;100.00;100448.27;107495;1278;59161;-81
2023/04/25 08:37:20;;;;;;;15.40;4.30;;;;;;;18.76;99.69;100443.29;106996;1279;59045;-81
2023/04/25 08:39:52;;;;;;;12.50;3.80;;;;;;;18.71;99.57;100443.23;107475;1279;59048;-82
2023/04/25 08:42:18;;;;;;;8.70;3.40;;;;;;;18.69;96.60;100442.71;107476;1279;60906;-82
2023/04/25 08:44:48;;;;;;;7.00;3.50;;;;;;;18.69;97.93;100442.34;107525;1279;59141;-82
2023/04/25 08:47:14;;;;;;;14.60;4.20;;;;;;;19.22;99.89;100436.38;107480;1279;73630;-81
2023/04/25 08:49:46;;;;;;;11.20;3.50;;;;;;;19.67;94.08;100439.54;107493;1279;59147;-83
2023/04/25 08:52:13;;;;;;;12.10;3.70;;;;;;;19.85;92.21;100436.57;107474;1279;59462;-81
2023/04/25 08:54:44;;;;;;;21.90;4.80;;;;;;;20.03;93.61;100432.34;107486;1279;60241;-82
2023/04/25 08:57:10;;;;;;;13.50;4.50;;;;;;;20.49;91.74;100430.21;107547;1279;74333;-82
2023/04/25 08:59:38;;;;;;;7.30;2.70;;;;;;;20.77;86.25;100431.25;107539;1278;59373;-81
2023/04/25 09:02:03;;;;;;;6.10;3.30;;;;;;;20.67;83.89;100428.13;107497;1279;73394;-82
2023/04/25 09:04:32;;;;;;;12.30;4.30;;;;;;;20.64;84.60;100424.66;107494;1278;58965;-81
2023/04/25 09:06:58;;;;;;;14.60;4.30;;;;;;;20.64;85.14;100423.48;107503;1279;60885;-82
2023/04/25 09:09:24;;;;;;;8.30;4.10;;;;;;;20.85;88.51;100419.54;107518;1279;58968;-82
2023/04/25 09:11:50;;;;;;;9.70;4.00;;;;;;;21.46;85.95;100419.58;107077;1279;59203;-83
2023/04/25 09:14:22;;;;;;;7.40;3.30;;;;;;;21.73;80.56;100418.80;107501;1279;59223;-82
2023/04/25 09:17:04;;;;;;;11.70;4.00;;;;;;;22.32;78.77;100414.66;107506;1278;61158;-83
2023/04/25 09:19:35;;;;;;;9.10;3.80;;;;;;;23.20;75.99;100407.42;107449;1278;61249;-82
2023/04/25 09:22:03;;;;;;;4.60;2.60;;;;;;;23.73;74.39;100406.06;107457;1279;75596;-82
2023/04/25 09:24:37;;;;;;;9.60;3.70;;;;;;;24.48;71.36;100409.64;107517;1279;74586;-81
2023/04/25 09:27:07;;;;;;;6.80;2.90;;;;;;;24.97;65.56;100405.39;107447;1279;73330;-82
2023/04/25 09:29:40;;;;;;;5.50;3.30;;;;;;;25.42;63.52;100399.36;107512;1279;60952;-82
2023/04/25 09:32:23;;;;;;;7.90;3.50;;;;;;;26.00;61.16;100395.15;107486;1278;60914;-82
2023/04/25 09:34:51;;;;;;;6.50;3.00;;;;;;;25.47;57.46;100397.96;107515;1279;75493;-82
2023/04/25 09:37:24;;;;;;;7.40;2.80;;;;;;;25.17;58.46;100396.29;107482;1279;74358;-82
2023/04/25 09:39:54;;;;;;;8.40;3.80;;;;;;;25.24;57.99;100394.22;107482;1278;73141;-83
2023/04/25 09:42:27;;;;;;;8.80;3.80;;;;;;;25.31;56.85;100393.33;107442;1279;60121;-83
2023/04/25 09:44:54;;;;;;;8.40;3.70;;;;;;;25.11;59.28;100390.48;107471;1280;59888;-82
2023/04/25 09:47:22;;;;;;;3.90;2.50;;;;;;;24.96;55.40;100387.88;107466;1279;75622;-83
2023/04/25 09:49:47;;;;;;;6.40;2.60;;;;;;;24.81;56.36;100388.66;107079;1278;73870;-83
2023/04/25 09:52:21;;;;;;;7.10;3.30;;;;;;;25.07;54.94;100386.14;107474;1279;59288;-82
2023/04/25 09:54:47;;;;;;;3.80;2.80;;;;;;;24.64;55.47;100386.95;107019;1280;60435;-82
2023/04/25 09:57:21;;;;;;;9.20;3.70;;;;;;;24.31;56.70;100382.09;107553;1278;58894;-80
2023/04/25 09:59:48;;;;;;;4.60;2.80;;;;;;;24.04;56.73;100383.00;107500;1279;74596;-82
2023/04/25 10:02:20;;;;;;;8.70;2.30;;;;;;;23.82;57.07;100380.44;107464;1278;74600;-83
2023/04/25 10:04:52;;;;;;;4.70;2.60;;;;;;;23.86;54.68;100378.33;107485;1279;71349;-83
2023/04/25 10:07:31;;;;;;;4.50;2.60;;;;;;;23.74;54.82;100374.25;107491;1278;60491;-82
2023/04/25 10:10:04;;;;;;;2.80;1.90;;;;;;;23.75;54.72;100373.04;107519;1278;61056;-83
2023/04/25 10:12:33;;;;;;;7.40;2.90;;;;;;;24.04;55.55;100366.74;107534;1279;75023;-83
2023/04/25 10:15:00;;;;;;;5.00;2.20;;;;;;;24.50;54.84;100365.23;107370;1279;73231;-82
2023/04/25 10:17:28;;;;;;;3.80;2.20;;;;;;;24.83;53.58;100365.46;107348;1280;58981;-82
2023/04/25 10:19:55;;;;;;;4.10;1.90;;;;;;;24.97;52.65;100357.80;107346;1279;60128;-83
2023/04/25 10:22:29;;;;;;;4.90;2.40;;;;;;;25.16;52.78;100356.00;107393;1281;58972;-83
2023/04/25 10:24:56;;;;;;;5.40;2.00;;;;;;;24.89;50.90;100356.52;107095;1279;74770;-82
2023/04/25 10:27:22;;;;;;;4.50;2.00;;;;;;;24.08;51.02;100358.88;107024;1279;74305;-82
2023/04/25 10:30:03;;;;;;;5.00;2.10;;;;;;;24.50;52.77;100352.86;107471;1279;59068;-83
2023/04/25 10:32:31;;;;;;;7.00;3.20;;;;;;;24.58;52.70;100351.94;107460;1278;59930;-82
2023/04/25 10:34:57;;;;;;;4.20;2.10;;;;;;;24.39;52.03;100353.40;107057;1278;59069;-83
2023/04/25 10:37:24;;;;;;;3.40;2.00;;;;;;;23.94;54.01;100351.80;107495;1279;59071;-82
2023/04/25 10:39:49;;;;;;;4.00;2.10;;;;;;;23.87;53.24;100355.02;107530;1278;59071;-83
2023/04/25 10:42:18;;;;;;;4.10;2.00;;;;;;;23.94;53.19;100353.21;107010;1279;59348;-83
2023/04/25 10:45:02;;;;;;;5.10;2.60;;;;;;;23.32;53.98;100351.74;107397;1279;60946;-83
2023/04/25 10:47:44;;;;;;;4.20;2.10;;;;;;;22.39;54.92;100350.33;107500;1278;61049;-84
2023/04/25 10:50:10;;;;;;;5.90;2.60;;;;;;;22.15;56.23;100349.93;107524;1279;74501;-82
2023/04/25 10:52:39;;;;;;;5.40;2.40;;;;;;;22.48;57.15;100349.41;107004;1280;72047;-83
2023/04/25 10:55:05;;;;;;;3.60;2.20;;;;;;;22.33;56.04;100350.98;107355;1279;73380;-82
2023/04/25 10:57:39;;;;;;;5.20;2.40;;;;;;;22.09;56.61;100354.06;107403;1279;58976;-82
2023/04/25 11:00:05;;;;;;;6.40;2.40;;;;;;;21.77;57.63;100348.02;107044;1278;61086;-82
2023/04/25 11:02:31;;;;;;;7.30;1.90;;;;;;;21.80;58.91;100347.09;107529;1278;59029;-82